Weather reports worldwide

Advertisment
Wasserkuppe, Germany (10544): temperature & dewpoint: 14.06.2019 06:00:00 - 20.06.2019 06:00:00 (CEST)Wasserkuppe, Germany (10544): temperature 5cm & temperature -5cm: 14.06.2019 06:00:00 - 20.06.2019 06:00:00 (CEST)Wasserkuppe, Germany (10544): temperature -20cm & temperature -100cm: 14.06.2019 06:00:00 - 20.06.2019 06:00:00 (CEST)Wasserkuppe, Germany (10544): wind speed & gusts: 14.06.2019 06:00:00 - 20.06.2019 06:00:00 (CEST)Wasserkuppe, Germany (10544): wind direction: 14.06.2019 06:00:00 - 20.06.2019 06:00:00 (CEST)Wasserkuppe, Germany (10544): visibility: 14.06.2019 06:00:00 - 20.06.2019 06:00:00 (CEST)Wasserkuppe, Germany (10544): sunshine duration: 14.06.2019 06:00:00 - 20.06.2019 06:00:00 (CEST)Wasserkuppe, Germany (10544): precipitation: 14.06.2019 06:00:00 - 20.06.2019 06:00:00 (CEST)
Date & Time tt [°C] td [°C] tt 5cm [°C] tt -5cm [°C] tt -20cm [°C] tt -100cm [°C] ff [km/h] ff [kn] fx [km/h] fx [kn] dd vv [km] sd [min] rr [mm]
20.06.2019 06:00:00 13,5 12,0 12,5 18,3 19,0 10,0 19 11 28 15 SW 40 0 0,0
20.06.2019 05:00:00 13,7 11,9 12,8 18,8 19,2 10,0 11 6 46 25 WSW 35 0 0,6
20.06.2019 04:00:00 15,6 12,3 15,0 19,3 19,3 10,0 20 11 26 14 SSW 25 0 -
20.06.2019 03:00:00 16,9 12,2 15,8 19,8 19,5 10,0 12 6 19 10 NW 55 0 0,0
20.06.2019 02:00:00 16,8 11,9 15,7 20,6 19,5 10,0 12 7 27 15 W 60 0 0,0
20.06.2019 01:00:00 17,4 11,3 15,5 21,5 19,6 10,0 18 10 31 17 WSW 65 0 0,0
20.06.2019 00:00:00 17,3 11,4 15,0 22,5 19,6 10,0 18 10 23 12 SW 60 0 0,0
19.06.2019 23:00:00 17,7 11,1 15,6 23,7 19,5 10,0 14 7 19 11 SW 60 0 0,0
19.06.2019 22:00:00 18,8 10,6 17,5 25,0 19,3 10,0 12 7 25 14 SW 75 0 0,0
19.06.2019 21:00:00 19,2 10,3 18,1 26,6 19,1 10,0 20 11 29 15 SW 80 10 0,0
19.06.2019 20:00:00 22,0 10,2 22,4 27,9 18,8 10,0 24 13 36 20 SSW 80 44 0,0
19.06.2019 19:00:00 23,0 10,0 25,7 28,9 18,5 9,9 23 13 33 18 S 82 56 0,0
19.06.2019 18:00:00 24,4 12,3 28,6 29,0 18,2 9,9 22 12 33 18 S 82 60 0,0
19.06.2019 17:00:00 24,9 13,6 29,5 28,6 17,9 9,9 22 12 37 20 S 82 57 0,0
19.06.2019 16:00:00 24,6 13,8 29,2 27,7 17,6 9,9 27 14 35 19 S 80 42 0,0
19.06.2019 15:00:00 22,1 13,3 23,7 27,5 17,3 9,9 19 10 32 17 SSW 82 38 0,0
19.06.2019 14:00:00 24,8 14,5 28,7 26,3 17,1 9,9 21 12 37 20 SSW 82 53 0,0
19.06.2019 13:00:00 24,5 13,5 28,7 24,8 17,0 9,9 27 15 41 22 SW 80 60 0,0
19.06.2019 12:00:00 23,5 12,8 27,6 22,8 17,0 9,9 22 12 34 18 SSW 80 60 0,0
19.06.2019 11:00:00 22,2 13,3 25,2 21,0 17,0 9,9 22 12 28 15 S 70 57 0,0
19.06.2019 10:00:00 21,5 13,4 24,7 19,5 17,1 9,9 19 11 28 15 SSW 70 60 0,0
19.06.2019 09:00:00 20,2 13,0 23,4 17,7 17,2 9,9 14 8 22 12 S 70 60 0,0
19.06.2019 08:00:00 18,9 12,4 20,3 16,7 17,4 9,9 15 8 18 10 S 70 46 0,0
19.06.2019 07:00:00 17,9 11,5 17,7 16,3 17,6 9,9 11 6 18 10 S 70 24 0,0
19.06.2019 06:00:00 15,8 10,5 13,2 16,7 17,7 9,9 15 8 19 11 S 70 0 0,0
19.06.2019 05:00:00 16,2 10,5 13,8 17,1 17,9 9,9 16 8 19 10 S 70 0 0,0
19.06.2019 04:00:00 16,5 10,3 12,9 17,6 18,0 9,9 15 8 20 11 S 70 0 0,0
19.06.2019 03:00:00 16,7 10,1 12,7 18,3 18,1 9,9 16 9 21 11 S 70 0 0,0
19.06.2019 02:00:00 17,2 10,1 13,2 19,0 18,2 9,9 14 7 17 9 S 70 0 0,0
19.06.2019 01:00:00 17,0 10,0 13,6 19,9 18,2 9,9 14 8 17 9 S 70 0 0,0
19.06.2019 00:00:00 16,9 9,6 14,1 20,8 18,2 9,9 13 7 16 9 S 80 0 0,0
18.06.2019 23:00:00 17,3 9,4 13,9 22,0 18,1 9,9 12 6 13 7 S 80 0 0,0
18.06.2019 22:00:00 17,7 10,8 15,2 23,4 17,9 9,9 13 7 16 9 S 80 0 0,0
18.06.2019 21:00:00 18,6 11,5 17,4 24,7 17,7 9,9 10 6 14 7 S 80 0 0,0
18.06.2019 20:00:00 20,1 11,9 19,5 26,1 17,4 9,9 8 4 16 9 SSE 70 21 0,0
18.06.2019 19:00:00 21,8 12,8 23,7 26,9 17,1 9,9 12 6 20 11 S 70 58 0,0
18.06.2019 18:00:00 22,6 12,5 26,4 27,1 16,7 9,9 15 8 24 13 S 70 33 0,0
18.06.2019 17:00:00 22,3 12,2 24,9 27,7 16,3 9,9 16 9 26 14 S 80 56 0,0
18.06.2019 16:00:00 23,0 13,1 27,9 27,1 16,0 9,9 23 12 31 17 S 82 60 0,0
18.06.2019 15:00:00 23,0 13,4 28,8 25,6 15,7 9,8 19 10 36 20 S 82 53 0,0
18.06.2019 14:00:00 23,4 14,2 29,4 24,3 15,5 9,8 22 12 33 18 S 82 44 0,0
18.06.2019 13:00:00 22,3 13,6 26,3 23,2 15,3 9,8 18 10 32 18 SSE 82 47 0,0
18.06.2019 12:00:00 21,4 14,0 26,0 21,5 15,3 9,8 17 9 26 14 S 82 55 0,0
18.06.2019 11:00:00 20,1 13,5 24,2 19,5 15,3 9,8 16 9 23 12 S 82 60 0,0
18.06.2019 10:00:00 19,0 13,3 22,3 17,3 15,3 9,8 19 10 24 13 SSE 82 60 0,0
18.06.2019 09:00:00 18,2 12,5 21,3 15,4 15,5 9,8 12 6 20 11 S 80 60 0,0
18.06.2019 08:00:00 17,5 12,3 17,9 14,3 15,6 9,8 15 8 22 12 SE 80 59 0,0
18.06.2019 07:00:00 15,2 10,7 15,4 13,8 15,8 9,8 14 8 29 15 S 70 60 0,0
18.06.2019 06:00:00 14,2 10,4 12,5 14,0 15,9 9,8 27 15 33 18 SE 70 23 0,0
18.06.2019 05:00:00 14,0 10,0 11,4 14,5 16,1 9,8 23 12 35 19 SSE 70 0 0,0
18.06.2019 04:00:00 14,5 10,1 12,1 15,0 16,2 9,8 31 17 42 23 SSE 70 0 0,0
18.06.2019 03:00:00 14,4 9,8 12,3 15,5 16,3 9,8 32 17 41 22 SE 70 0 0,0
18.06.2019 02:00:00 14,2 10,2 12,2 16,1 16,4 9,8 32 17 41 22 SE 70 0 0,0
18.06.2019 01:00:00 14,7 10,5 12,5 16,9 16,4 9,8 31 17 37 20 ESE 70 0 0,0
18.06.2019 00:00:00 15,1 10,5 12,1 17,8 16,4 9,8 26 14 34 18 ESE 80 0 0,0
17.06.2019 23:00:00 15,9 10,4 11,4 18,9 16,3 9,8 16 9 19 11 ESE 80 0 0,0
17.06.2019 22:00:00 16,6 10,5 12,4 20,2 16,1 9,8 13 7 17 9 E 82 2 0,0
17.06.2019 21:00:00 17,8 11,0 15,5 21,7 15,9 9,8 10 5 16 8 E 82 38 0,0
17.06.2019 20:00:00 19,5 11,2 19,9 22,7 15,6 9,8 11 6 22 12 ESE 82 59 0,0
17.06.2019 19:00:00 20,4 11,6 22,0 23,5 15,4 9,8 13 7 23 13 E 82 56 0,0
17.06.2019 18:00:00 21,8 11,3 23,6 23,3 15,1 9,8 16 8 27 15 SE 82 60 0,0
17.06.2019 17:00:00 21,5 10,8 24,3 22,5 14,8 9,8 17 9 25 13 SE 80 46 0,0
17.06.2019 16:00:00 18,9 10,7 21,8 22,4 14,5 9,8 15 8 26 14 ESE 80 37 0,0
17.06.2019 15:00:00 19,5 11,4 22,1 22,1 14,3 9,8 14 8 27 15 SE 70 27 0,0
17.06.2019 14:00:00 20,3 12,6 24,2 21,4 14,1 9,8 18 10 31 17 SE 70 38 0,0
17.06.2019 13:00:00 20,0 13,0 23,2 20,2 14,0 9,8 16 9 29 16 SE 70 50 0,0
17.06.2019 12:00:00 18,5 10,9 20,8 18,4 13,9 9,8 18 10 29 16 ESE 60 46 0,0
17.06.2019 11:00:00 17,7 10,6 20,8 16,4 14,0 9,8 18 10 26 14 SE 60 60 0,0
17.06.2019 10:00:00 16,2 10,0 18,9 14,3 14,1 9,8 16 9 26 14 ESE 60 60 0,0
17.06.2019 09:00:00 14,7 9,6 16,6 12,9 14,2 9,8 17 9 26 14 E 60 60 0,0
17.06.2019 08:00:00 14,3 9,9 15,1 11,8 14,4 9,8 13 7 20 11 ENE 50 60 0,0
17.06.2019 07:00:00 13,5 9,8 12,8 11,2 14,5 9,8 10 5 15 8 NE 60 60 0,0
17.06.2019 06:00:00 11,7 9,2 8,4 11,4 14,7 9,8 7 4 9 5 NNE 60 18 0,0
17.06.2019 05:00:00 11,4 9,1 8,6 11,8 14,8 9,8 8 4 9 5 N 60 0 0,0
17.06.2019 04:00:00 11,0 8,5 6,7 12,3 14,9 9,8 6 4 6 4 N 60 0 0,0
17.06.2019 03:00:00 10,7 8,2 6,8 12,9 15,0 9,7 3 2 5 3 N 50 0 0,0
17.06.2019 02:00:00 11,4 8,8 8,0 13,5 15,1 9,7 4 2 8 5 WNW 50 0 0,0
17.06.2019 01:00:00 10,8 9,1 8,1 14,2 15,2 9,7 6 3 6 4 WSW 50 0 0,0
17.06.2019 00:00:00 10,8 9,2 8,5 15,1 15,2 9,7 4 2 6 4 SSW 50 0 0,0
16.06.2019 23:00:00 11,1 8,7 9,0 16,1 15,1 9,7 5 3 6 3 S 50 0 0,0
16.06.2019 22:00:00 12,1 9,0 10,2 17,1 15,0 9,7 4 2 5 3 SSE 50 0 0,0
16.06.2019 21:00:00 13,7 9,6 12,8 17,8 15,0 9,7 2 1 7 4 SSW 50 13 0,0
16.06.2019 20:00:00 14,5 10,6 15,4 17,9 14,9 9,7 5 3 10 6 SSW 50 15 0,0
16.06.2019 19:00:00 14,8 10,2 15,5 17,9 14,8 9,7 6 3 9 5 WSW 60 0 0,0
16.06.2019 18:00:00 14,2 10,5 15,1 18,1 14,7 9,7 8 4 19 10 SW 65 1 0,0
16.06.2019 17:00:00 14,5 10,9 16,2 17,7 14,6 9,7 14 7 21 11 SW 65 4 0,0
16.06.2019 16:00:00 13,8 10,9 14,8 17,4 14,6 9,7 16 9 23 12 SW 60 0 0,0
16.06.2019 15:00:00 13,8 11,5 14,7 17,3 14,5 9,7 16 9 23 12 SW 60 0 0,0
16.06.2019 14:00:00 13,6 11,9 14,3 16,5 14,6 9,7 15 8 21 12 SW 30 9 0,0
16.06.2019 13:00:00 13,2 11,8 13,7 15,5 14,6 9,7 10 5 16 9 WSW 4,0 0 0,4
16.06.2019 12:00:00 12,5 11,2 13,1 14,9 14,6 9,7 9 5 17 9 W 5 0 0,2
16.06.2019 11:00:00 12,0 10,9 12,5 14,2 14,7 9,7 10 6 22 12 W 5 0 2,5
16.06.2019 10:00:00 11,8 11,0 12,2 13,9 14,8 9,7 17 9 25 14 WSW 1,0 0 0,0
16.06.2019 09:00:00 11,4 10,8 11,6 13,6 14,9 9,7 19 10 25 13 WSW 0,2 0 0,1
16.06.2019 08:00:00 11,2 10,8 11,3 13,6 15,0 9,7 19 10 25 14 WSW 0,1 0 0,0
16.06.2019 07:00:00 12,1 10,3 11,7 13,5 15,2 9,7 15 8 30 16 WSW 50 0 0,0
16.06.2019 06:00:00 13,1 9,4 11,8 13,6 15,3 9,7 4 2 9 5 S 45 0 0,0
16.06.2019 05:00:00 13,1 10,4 11,4 13,7 15,4 9,7 7 4 17 9 E 40 0 0,0
16.06.2019 04:00:00 13,3 10,5 11,9 13,8 15,5 9,7 9 5 14 8 NE 60 0 0,0
16.06.2019 03:00:00 13,3 10,3 11,8 14,1 15,7 9,7 10 5 14 8 NE 60 0 0,0
16.06.2019 02:00:00 13,2 8,8 10,8 14,5 15,7 9,7 11 6 23 13 N 70 0 0,0
16.06.2019 01:00:00 13,7 8,6 12,1 15,1 15,8 9,7 18 10 22 12 N 70 0 0,0
16.06.2019 00:00:00 13,6 8,7 12,0 15,9 15,8 9,7 13 7 19 11 NNW 80 0 0,0
15.06.2019 23:00:00 13,9 9,1 12,3 16,7 15,8 9,6 13 7 19 10 NNW 80 0 0,0
15.06.2019 22:00:00 14,5 9,6 12,7 17,8 15,8 9,6 14 8 22 12 NNW 82 1 0,0
15.06.2019 21:00:00 15,7 10,6 14,2 18,7 15,7 9,6 16 9 22 12 NW 82 39 0,0
15.06.2019 20:00:00 17,1 11,2 17,6 19,2 15,6 9,6 14 7 27 15 WNW 82 46 0,0
15.06.2019 19:00:00 17,7 11,9 18,3 19,8 15,4 9,6 17 9 28 15 WNW 82 25 0,0
15.06.2019 18:00:00 17,6 11,2 18,6 20,3 15,3 9,6 14 8 32 17 WNW 82 24 0,0
15.06.2019 17:00:00 18,6 12,4 20,8 19,7 15,2 9,6 20 11 35 19 W 82 49 0,0
15.06.2019 16:00:00 17,9 12,9 19,8 19,0 15,1 9,6 24 13 40 21 W 80 21 0,0
15.06.2019 15:00:00 17,0 12,5 18,5 18,6 15,0 9,6 26 14 39 21 WSW 75 10 0,0
15.06.2019 14:00:00 16,9 13,9 18,5 18,4 14,9 9,6 24 13 38 21 WSW 70 4 0,0
15.06.2019 13:00:00 15,9 13,7 16,8 18,7 14,9 9,6 22 12 41 22 SW 60 2 0,0
15.06.2019 12:00:00 15,9 12,8 17,1 18,8 14,8 9,6 26 14 44 24 WSW 60 17 0,0
15.06.2019 11:00:00 16,5 13,0 19,3 17,8 14,8 9,6 26 14 49 27 W 45 54 0,0
15.06.2019 10:00:00 16,3 12,1 18,8 16,5 14,8 9,6 38 21 54 29 WSW 45 60 0,0
15.06.2019 09:00:00 16,2 11,7 17,6 15,5 14,9 9,6 36 19 57 31 SW 40 51 0,0
15.06.2019 08:00:00 17,9 11,0 18,7 14,9 14,9 9,6 40 22 56 30 SSW 45 47 0,0
15.06.2019 07:00:00 18,4 11,6 18,1 14,7 15,0 9,6 36 19 47 26 S 35 17 0,0
15.06.2019 06:00:00 18,7 11,7 16,5 14,7 15,1 9,6 32 17 59 32 S 35 0 0,0
15.06.2019 05:00:00 18,5 12,7 17,0 14,7 15,2 9,6 39 21 61 33 S 40 0 0,0
15.06.2019 04:00:00 18,1 13,0 17,1 14,6 15,3 9,6 39 21 52 28 SE 45 0 0,0
15.06.2019 03:00:00 18,4 11,9 17,3 14,7 15,4 9,6 37 20 48 26 ESE 50 0 0,0
15.06.2019 02:00:00 18,4 9,0 17,0 14,9 15,4 9,6 31 17 48 26 E 55 0 0,0
15.06.2019 01:00:00 18,2 7,8 16,5 15,4 15,5 9,6 26 14 42 23 ENE 55 0 0,0
15.06.2019 00:00:00 17,8 8,5 16,0 15,9 15,5 9,6 21 12 33 18 NE 55 0 0,0
14.06.2019 23:00:00 17,6 8,6 15,7 16,6 15,5 9,6 15 8 19 10 NNE 55 0 0,0
14.06.2019 22:00:00 17,5 8,5 15,4 17,3 15,5 9,6 12 6 16 9 N 60 0 0,0
14.06.2019 21:00:00 16,5 10,0 15,4 17,9 15,4 9,6 10 5 26 14 WSW 60 0 0,0
14.06.2019 20:00:00 16,9 10,2 16,2 18,6 15,3 9,6 21 11 45 24 SW 45 0 0,0
14.06.2019 19:00:00 16,7 11,0 15,6 19,3 15,1 9,5 12 7 32 18 W 45 0 0,0
14.06.2019 18:00:00 17,8 11,5 17,3 19,9 14,9 9,5 17 9 28 15 S 55 0 0,0
14.06.2019 17:00:00 19,1 11,4 19,6 20,2 14,8 9,5 22 12 36 20 SSW 75 0 0,0
14.06.2019 16:00:00 19,4 12,8 20,8 20,2 14,6 9,5 29 15 44 24 S 70 4 0,0
14.06.2019 15:00:00 19,7 11,7 21,1 19,7 14,5 9,5 27 15 41 22 S 75 12 0,0
14.06.2019 14:00:00 20,2 12,3 22,5 18,9 14,3 9,5 35 19 59 32 SSE 80 7 0,0
14.06.2019 13:00:00 19,8 11,1 21,4 18,0 14,2 9,5 34 19 51 28 SSE 82 11 0,0
14.06.2019 12:00:00 17,7 11,6 19,0 17,8 14,2 9,5 37 20 48 26 SSE 82 2 0,0
14.06.2019 11:00:00 18,0 10,8 19,1 17,2 14,2 9,5 37 20 55 30 SSE 82 45 0,0
14.06.2019 10:00:00 18,0 10,0 20,3 15,3 14,3 9,5 36 19 54 29 SSE 80 60 0,0
14.06.2019 09:00:00 17,0 10,0 18,8 13,6 14,5 9,5 39 21 55 30 SSE 80 60 0,0
14.06.2019 08:00:00 15,5 9,4 16,7 12,3 14,6 9,5 38 20 51 27 SSE 82 59 0,0
14.06.2019 07:00:00 13,9 9,4 14,0 11,6 14,8 9,5 40 21 52 28 SE 82 60 0,0
14.06.2019 06:00:00 13,0 8,5 11,7 11,6 15,0 9,5 35 19 44 24 SSE 82 24 0,0

tt = temperature
td = dewpoint
tt 5cm = temperature 5cm
tt -5cm = temperature -5cm
tt -20cm = temperature -20cm
tt -100cm = temperature -100cm
ff = wind speed
fx = gusts
dd = wind direction
vv = visibility
sd = sunshine duration
rr = precipitation

Next stations